createdAt,value
2018-08-31T00:00:49.434Z,79.25
2018-08-31T00:01:59.749Z,79.39
2018-08-31T00:03:04.721Z,79.54
2018-08-31T00:04:41.272Z,79.82
2018-08-31T00:06:06.201Z,79.78
2018-08-31T00:07:16.465Z,79.68
2018-08-31T00:08:35.578Z,79.51
2018-08-31T00:11:49.745Z,79.50
2018-08-31T00:12:54.323Z,79.31
2018-08-31T00:13:58.930Z,79.34
2018-08-31T00:15:03.545Z,79.36
2018-08-31T00:16:08.105Z,79.45
2018-08-31T00:17:12.696Z,79.03
2018-08-31T00:18:17.749Z,79.33
2018-08-31T00:19:22.335Z,79.28
2018-08-31T00:20:27.041Z,79.15
2018-08-31T00:21:31.651Z,79.37
2018-08-31T00:22:36.236Z,79.24
2018-08-31T00:23:46.256Z,79.45
2018-08-31T00:24:56.257Z,79.48
2018-08-31T00:26:08.076Z,79.66
2018-08-31T00:27:18.368Z,79.63
2018-08-31T00:28:27.278Z,79.86
2018-08-31T00:29:37.361Z,80.14
2018-08-31T00:30:47.197Z,80.18
2018-08-31T00:31:57.524Z,80.47
2018-08-31T00:33:07.511Z,80.53
2018-08-31T00:34:21.483Z,80.71
2018-08-31T00:37:33.151Z,80.35
2018-08-31T00:38:47.093Z,80.37
2018-08-31T00:39:56.937Z,80.47
2018-08-31T00:41:07.194Z,80.52
2018-08-31T00:42:17.608Z,80.45
2018-08-31T00:44:31.341Z,80.11
2018-08-31T00:45:38.059Z,80.66
2018-08-31T00:46:43.155Z,80.73
2018-08-31T00:47:48.711Z,80.91
2018-08-31T00:48:53.495Z,81.03
2018-08-31T00:49:58.209Z,81.08
2018-08-31T00:51:03.756Z,80.92
2018-08-31T00:52:08.434Z,81.06
2018-08-31T00:53:13.192Z,80.93
2018-08-31T00:54:18.204Z,81.06
2018-08-31T00:55:22.889Z,81.20
2018-08-31T00:56:27.558Z,81.13
2018-08-31T00:57:32.237Z,81.22
2018-08-31T00:58:36.962Z,81.17
2018-08-31T00:59:41.721Z,81.19
2018-08-31T01:00:46.791Z,81.25
2018-08-31T01:01:51.531Z,81.12
2018-08-31T01:02:56.257Z,81.15
2018-08-31T01:04:01.117Z,81.29
2018-08-31T01:05:05.783Z,81.23
2018-08-31T01:06:10.465Z,81.40
2018-08-31T01:07:15.465Z,81.58
2018-08-31T01:08:20.287Z,81.80
2018-08-31T01:09:24.853Z,81.82
2018-08-31T01:10:29.433Z,81.98
2018-08-31T01:11:34.030Z,82.08
2018-08-31T01:12:38.869Z,82.15
2018-08-31T01:13:43.859Z,81.98
2018-08-31T01:14:48.426Z,82.13
2018-08-31T01:15:52.998Z,81.94
2018-08-31T01:16:57.612Z,81.65
2018-08-31T01:18:02.237Z,81.57
2018-08-31T01:19:06.821Z,81.64
2018-08-31T01:20:11.896Z,81.61
2018-08-31T01:21:16.581Z,81.63
2018-08-31T01:22:21.293Z,81.40
2018-08-31T01:23:25.995Z,81.48
2018-08-31T01:24:30.753Z,81.47
2018-08-31T01:25:35.626Z,81.51
2018-08-31T01:26:40.653Z,81.52
2018-08-31T01:27:45.362Z,81.50
2018-08-31T01:28:50.034Z,81.62
2018-08-31T01:29:54.598Z,81.50
2018-08-31T01:30:59.154Z,81.84
2018-08-31T01:32:03.836Z,81.96
2018-08-31T01:33:08.942Z,82.19
2018-08-31T01:34:13.523Z,82.59
2018-08-31T01:35:18.160Z,82.48
2018-08-31T01:36:22.731Z,82.58
2018-08-31T01:37:27.316Z,82.63
2018-08-31T01:38:31.958Z,82.61
2018-08-31T01:39:37.061Z,82.70
2018-08-31T01:40:41.711Z,82.49
2018-08-31T01:41:46.266Z,82.38
2018-08-31T01:42:50.833Z,82.55
2018-08-31T01:43:56.025Z,82.32
2018-08-31T01:45:00.713Z,82.42
2018-08-31T01:46:05.698Z,82.48
2018-08-31T01:47:10.410Z,82.45
2018-08-31T01:48:14.974Z,82.72
2018-08-31T01:49:19.569Z,82.50
2018-08-31T01:50:24.376Z,82.67
2018-08-31T01:51:29.152Z,82.50
2018-08-31T01:52:34.247Z,82.72
2018-08-31T01:53:38.822Z,82.86
2018-08-31T01:54:43.396Z,82.96
2018-08-31T01:55:48.609Z,83.09
2018-08-31T01:56:53.687Z,83.21
2018-08-31T01:57:58.336Z,83.35
2018-08-31T01:59:03.413Z,83.35
2018-08-31T02:00:08.038Z,83.34
2018-08-31T02:01:13.322Z,83.26
2018-08-31T02:02:18.641Z,83.38
2018-08-31T02:03:24.120Z,83.37
2018-08-31T02:04:28.711Z,83.19
2018-08-31T02:05:33.736Z,83.21
2018-08-31T02:06:38.340Z,83.38
2018-08-31T02:07:42.966Z,83.21
2018-08-31T02:08:52.472Z,82.92
2018-08-31T02:09:57.070Z,83.15
2018-08-31T02:11:01.728Z,83.21
2018-08-31T02:12:06.824Z,83.10
2018-08-31T02:13:11.419Z,83.30
2018-08-31T02:14:15.988Z,83.14
2018-08-31T02:15:20.567Z,83.03
2018-08-31T02:16:25.162Z,83.02
2018-08-31T02:17:29.729Z,83.15
2018-08-31T02:18:34.717Z,83.27
2018-08-31T02:19:40.072Z,83.29
2018-08-31T02:20:44.671Z,83.19
2018-08-31T02:21:49.432Z,83.33
2018-08-31T02:22:54.168Z,83.00
2018-08-31T02:23:58.931Z,83.10
2018-08-31T02:25:04.141Z,83.16
2018-08-31T02:26:08.880Z,83.12
2018-08-31T02:27:13.639Z,83.21
2018-08-31T02:28:18.365Z,83.39
2018-08-31T02:29:23.072Z,83.51
2018-08-31T02:30:27.785Z,83.60
2018-08-31T02:31:32.837Z,83.66
2018-08-31T02:32:37.555Z,83.86
2018-08-31T02:33:42.265Z,83.86
2018-08-31T02:34:46.972Z,83.96
2018-08-31T02:35:51.716Z,84.03
2018-08-31T02:36:56.415Z,83.96
2018-08-31T02:38:01.556Z,84.20
2018-08-31T02:39:07.379Z,84.27
2018-08-31T02:40:12.140Z,84.54
2018-08-31T02:41:16.950Z,84.51
2018-08-31T02:42:21.627Z,84.76
2018-08-31T02:43:26.356Z,84.76
2018-08-31T02:44:31.477Z,84.88
2018-08-31T02:45:36.168Z,84.70
2018-08-31T02:46:40.813Z,84.45
2018-08-31T02:47:46.388Z,84.55
2018-08-31T02:48:51.901Z,84.36
2018-08-31T02:49:56.490Z,84.57
2018-08-31T02:51:02.195Z,84.72
2018-08-31T02:52:06.832Z,84.72
2018-08-31T02:53:11.417Z,84.59
2018-08-31T02:54:16.067Z,84.61
2018-08-31T02:55:20.711Z,84.59
2018-08-31T02:56:25.345Z,84.63
2018-08-31T02:57:30.458Z,84.59
2018-08-31T02:58:35.162Z,84.50
2018-08-31T02:59:39.802Z,84.56
2018-08-31T03:00:44.388Z,84.39
2018-08-31T03:01:48.957Z,84.47
2018-08-31T03:02:56.028Z,84.37
2018-08-31T03:04:01.069Z,84.41
2018-08-31T03:05:05.715Z,84.39
2018-08-31T03:06:11.992Z,84.49
2018-08-31T03:07:16.685Z,84.34
2018-08-31T03:08:21.866Z,84.18
2018-08-31T03:09:27.159Z,84.23
2018-08-31T03:10:32.285Z,84.17
2018-08-31T03:11:37.144Z,84.17
2018-08-31T03:12:41.837Z,84.06
2018-08-31T03:13:46.621Z,83.97
2018-08-31T03:14:51.689Z,84.01
2018-08-31T03:15:56.399Z,84.18
2018-08-31T03:17:01.340Z,84.08
2018-08-31T03:18:06.053Z,84.00
2018-08-31T03:19:10.772Z,83.99
2018-08-31T03:20:15.521Z,83.76
2018-08-31T03:21:20.308Z,83.73
2018-08-31T03:22:25.795Z,83.74
2018-08-31T03:23:30.878Z,83.73
2018-08-31T03:24:36.696Z,83.75
2018-08-31T03:25:41.425Z,83.71
2018-08-31T03:26:46.137Z,83.72
2018-08-31T03:27:50.950Z,83.67
2018-08-31T03:28:55.618Z,83.69
2018-08-31T03:30:01.480Z,83.78
2018-08-31T03:31:06.219Z,83.74
2018-08-31T03:32:10.908Z,83.66
2018-08-31T03:33:15.681Z,83.68
2018-08-31T03:34:20.419Z,83.94
2018-08-31T03:35:25.158Z,84.00
2018-08-31T03:36:31.673Z,84.10
2018-08-31T03:37:37.370Z,84.17
2018-08-31T03:38:42.923Z,84.45
2018-08-31T03:39:47.610Z,84.60
2018-08-31T03:40:52.217Z,84.74
2018-08-31T03:41:56.829Z,84.89
2018-08-31T03:43:01.838Z,84.83
2018-08-31T03:44:06.622Z,85.00
2018-08-31T03:45:11.218Z,84.97
2018-08-31T03:46:15.792Z,84.74
2018-08-31T03:47:21.414Z,84.81
2018-08-31T03:48:26.397Z,84.91
2018-08-31T03:49:32.388Z,84.86
2018-08-31T03:50:36.979Z,84.90
2018-08-31T03:51:45.519Z,85.11
2018-08-31T03:52:50.140Z,85.24
2018-08-31T03:53:55.770Z,85.34
2018-08-31T03:55:00.394Z,85.60
2018-08-31T03:56:07.232Z,85.60
2018-08-31T03:57:12.812Z,85.79
2018-08-31T03:58:17.388Z,85.75
2018-08-31T03:59:21.959Z,85.93
2018-08-31T04:00:26.614Z,85.93
2018-08-31T04:01:31.243Z,85.85
2018-08-31T04:02:37.066Z,85.83
2018-08-31T04:03:43.076Z,85.94
2018-08-31T04:04:47.723Z,86.07
2018-08-31T04:05:52.414Z,86.13
2018-08-31T04:06:57.122Z,86.13
2018-08-31T04:08:01.860Z,86.10
2018-08-31T04:09:08.467Z,86.16
2018-08-31T04:10:13.172Z,86.00
2018-08-31T04:11:20.041Z,85.95
2018-08-31T04:12:24.733Z,85.97
2018-08-31T04:13:31.052Z,85.96
2018-08-31T04:14:36.803Z,86.12
2018-08-31T04:15:43.957Z,85.90
2018-08-31T04:16:48.660Z,85.90
2018-08-31T04:17:53.407Z,86.13
2018-08-31T04:19:02.520Z,86.15
2018-08-31T04:20:07.641Z,86.06
2018-08-31T04:21:12.348Z,86.16
2018-08-31T04:22:17.419Z,86.23
2018-08-31T04:23:22.950Z,86.32
2018-08-31T04:24:27.655Z,86.37
2018-08-31T04:25:32.532Z,86.33
2018-08-31T04:26:37.400Z,86.38
2018-08-31T04:27:42.726Z,86.48
2018-08-31T04:28:47.729Z,86.45
2018-08-31T04:29:52.443Z,86.43
2018-08-31T04:30:57.112Z,86.51
2018-08-31T04:32:01.918Z,86.47
2018-08-31T04:33:07.584Z,86.44
2018-08-31T04:34:12.954Z,86.32
2018-08-31T04:35:17.941Z,86.20
2018-08-31T04:36:22.638Z,86.07
2018-08-31T04:37:27.448Z,85.91
2018-08-31T04:38:32.118Z,85.91
2018-08-31T04:39:36.788Z,85.93
2018-08-31T04:40:41.636Z,85.99
2018-08-31T04:41:46.609Z,86.17
2018-08-31T04:42:51.385Z,85.82
2018-08-31T04:43:56.079Z,86.04
2018-08-31T04:45:02.670Z,85.83
2018-08-31T04:46:08.935Z,86.02
2018-08-31T04:47:14.241Z,86.04
2018-08-31T04:48:19.058Z,86.15
2018-08-31T04:49:23.840Z,86.17
2018-08-31T04:50:28.612Z,86.25
2018-08-31T04:51:33.353Z,86.26
2018-08-31T04:52:38.112Z,86.13
2018-08-31T04:53:43.174Z,86.12
2018-08-31T04:54:48.816Z,85.83
2018-08-31T04:55:53.551Z,85.91
2018-08-31T04:56:58.249Z,85.80
2018-08-31T04:58:02.985Z,85.57
2018-08-31T04:59:07.726Z,85.75
2018-08-31T05:00:12.462Z,85.77
2018-08-31T05:01:17.195Z,85.63
2018-08-31T05:02:22.181Z,85.45
2018-08-31T05:03:27.440Z,85.44
2018-08-31T05:04:32.257Z,85.28
2018-08-31T05:05:37.490Z,85.41
2018-08-31T05:06:42.308Z,85.49
2018-08-31T05:07:48.128Z,85.41
2018-08-31T05:08:52.881Z,85.46
2018-08-31T05:09:57.541Z,85.19
2018-08-31T05:11:02.344Z,85.33
2018-08-31T05:12:07.458Z,85.32
2018-08-31T05:13:12.341Z,85.20
2018-08-31T05:14:17.103Z,85.39
2018-08-31T05:15:21.793Z,85.30
2018-08-31T05:16:26.490Z,85.37
2018-08-31T05:17:31.098Z,85.38
2018-08-31T05:18:36.084Z,85.51
2018-08-31T05:19:40.830Z,85.60
2018-08-31T05:20:45.669Z,85.65
2018-08-31T05:21:50.408Z,85.56
2018-08-31T05:22:55.195Z,85.65
2018-08-31T05:24:00.048Z,85.71
2018-08-31T05:25:05.094Z,85.60
2018-08-31T05:26:09.979Z,85.93
2018-08-31T05:27:14.783Z,85.87
2018-08-31T05:28:20.208Z,86.11
2018-08-31T05:29:25.020Z,85.90
2018-08-31T05:33:17.688Z,86.15
2018-08-31T05:34:22.512Z,85.96
2018-08-31T05:35:27.240Z,86.07
2018-08-31T05:36:32.011Z,86.03
2018-08-31T05:37:38.060Z,86.04
2018-08-31T05:38:43.239Z,85.99
2018-08-31T05:39:47.956Z,85.82
2018-08-31T05:40:52.743Z,85.91
2018-08-31T05:41:57.475Z,85.87
2018-08-31T05:43:03.233Z,85.91
2018-08-31T05:44:09.327Z,85.68
2018-08-31T05:45:14.334Z,85.90
2018-08-31T05:46:19.829Z,85.80
2018-08-31T05:47:27.738Z,86.08
2018-08-31T05:48:32.864Z,85.92
2018-08-31T05:49:37.750Z,86.12
2018-08-31T05:50:42.608Z,86.16
2018-08-31T05:51:48.073Z,86.27
2018-08-31T05:52:52.832Z,86.13
2018-08-31T05:53:57.550Z,86.18
2018-08-31T05:55:02.290Z,86.10
2018-08-31T05:56:07.035Z,85.95
2018-08-31T05:57:11.817Z,85.80
2018-08-31T05:58:17.666Z,85.83
2018-08-31T05:59:27.142Z,85.88
2018-08-31T06:00:32.718Z,85.90
2018-08-31T06:01:39.279Z,85.74
2018-08-31T06:02:45.216Z,85.72
2018-08-31T06:03:53.754Z,85.88
2018-08-31T06:04:59.318Z,85.85
2018-08-31T06:06:04.144Z,85.83
2018-08-31T06:07:08.827Z,85.80
2018-08-31T06:08:13.772Z,85.76
2018-08-31T06:09:18.685Z,85.53
2018-08-31T06:10:23.600Z,85.56
2018-08-31T06:11:28.375Z,85.48
2018-08-31T06:12:33.322Z,85.54
2018-08-31T06:13:38.206Z,85.65
2018-08-31T06:14:43.086Z,85.71
2018-08-31T06:15:48.003Z,85.64
2018-08-31T06:16:53.812Z,85.35
2018-08-31T06:17:58.509Z,85.52
2018-08-31T06:19:03.356Z,85.47
2018-08-31T06:20:08.561Z,85.54
2018-08-31T06:21:14.504Z,85.61
2018-08-31T06:22:19.179Z,85.27
2018-08-31T06:23:23.949Z,85.41
2018-08-31T06:24:28.979Z,85.21
2018-08-31T06:25:35.109Z,85.32
2018-08-31T06:26:41.880Z,85.43
2018-08-31T06:27:47.466Z,85.22
2018-08-31T06:28:52.614Z,85.00
2018-08-31T06:29:58.172Z,85.19
2018-08-31T06:31:02.842Z,84.95
2018-08-31T06:32:07.872Z,85.13
2018-08-31T06:33:13.653Z,84.95
2018-08-31T06:34:19.192Z,84.87
2018-08-31T06:35:24.241Z,84.51
2018-08-31T06:36:30.925Z,84.64
2018-08-31T06:37:36.628Z,84.73
2018-08-31T06:38:41.512Z,84.60
2018-08-31T06:39:49.943Z,84.60
2018-08-31T06:40:55.680Z,84.57
2018-08-31T06:42:00.793Z,84.38
2018-08-31T06:43:06.432Z,84.58
2018-08-31T06:44:11.172Z,84.46
2018-08-31T06:45:16.522Z,84.21
2018-08-31T06:46:21.690Z,84.32
2018-08-31T06:47:26.571Z,84.05
2018-08-31T06:48:31.712Z,83.94
2018-08-31T06:49:36.516Z,83.97
2018-08-31T06:50:41.365Z,83.71
2018-08-31T06:51:48.966Z,83.95
2018-08-31T06:52:55.172Z,83.43
2018-08-31T06:54:01.000Z,83.08
2018-08-31T06:55:07.014Z,83.03
2018-08-31T06:56:11.792Z,82.76
2018-08-31T06:57:19.852Z,82.69
2018-08-31T06:58:25.842Z,82.33
2018-08-31T06:59:31.289Z,82.11
2018-08-31T07:00:41.432Z,82.04
2018-08-31T07:01:46.257Z,81.79
2018-08-31T07:02:51.964Z,81.48
2018-08-31T07:03:56.912Z,81.55
2018-08-31T07:05:02.054Z,81.53
2018-08-31T07:06:06.809Z,81.53
2018-08-31T07:07:11.461Z,81.43
2018-08-31T07:08:16.125Z,81.10
2018-08-31T07:09:20.775Z,81.29
2018-08-31T07:10:26.609Z,81.13
2018-08-31T07:11:32.068Z,80.96
2018-08-31T07:12:38.048Z,80.72
2018-08-31T07:13:43.849Z,80.60
2018-08-31T07:14:48.635Z,80.41
2018-08-31T07:15:53.343Z,80.30
2018-08-31T07:16:58.244Z,80.15
2018-08-31T07:18:02.954Z,80.06
2018-08-31T07:19:08.017Z,79.68
2018-08-31T07:20:13.131Z,79.11
2018-08-31T07:21:17.923Z,78.89
2018-08-31T07:22:24.072Z,78.53
2018-08-31T07:23:29.439Z,78.31
2018-08-31T07:24:35.184Z,77.55
2018-08-31T07:25:39.987Z,77.03
2018-08-31T07:26:45.142Z,76.45
2018-08-31T07:27:50.033Z,75.96
2018-08-31T07:28:54.793Z,75.53
2018-08-31T07:30:00.275Z,75.01
2018-08-31T07:31:08.782Z,74.56
2018-08-31T07:32:13.616Z,74.51
2018-08-31T07:33:18.837Z,73.92
2018-08-31T07:34:23.553Z,73.12
2018-08-31T07:35:29.201Z,72.84
2018-08-31T07:36:33.918Z,72.67
2018-08-31T07:37:38.923Z,72.40
2018-08-31T07:38:44.372Z,72.03
2018-08-31T07:39:49.681Z,71.56
2018-08-31T07:40:54.404Z,70.90
2018-08-31T07:41:59.006Z,69.80
2018-08-31T07:43:03.796Z,69.74
2018-08-31T07:44:08.432Z,68.79
2018-08-31T07:45:14.056Z,68.46
2018-08-31T07:46:20.788Z,67.94
2018-08-31T07:47:25.415Z,68.00
2018-08-31T07:48:30.652Z,67.55
2018-08-31T07:49:35.376Z,67.28
2018-08-31T07:50:40.832Z,67.71
2018-08-31T07:51:49.411Z,67.12
2018-08-31T07:52:54.530Z,66.94
2018-08-31T07:54:00.172Z,66.84
2018-08-31T07:55:16.711Z,66.70
2018-08-31T07:56:22.008Z,65.65
2018-08-31T07:57:30.570Z,66.07
2018-08-31T07:58:35.908Z,65.87
2018-08-31T07:59:43.084Z,65.78
2018-08-31T08:00:48.432Z,65.75
2018-08-31T08:02:01.500Z,65.31
2018-08-31T08:03:09.566Z,65.79
2018-08-31T08:04:16.460Z,65.66
2018-08-31T08:05:22.870Z,65.10
2018-08-31T08:06:30.154Z,64.79
2018-08-31T08:07:36.594Z,65.11
2018-08-31T08:08:42.673Z,64.89
2018-08-31T08:09:48.820Z,64.15
2018-08-31T08:10:54.895Z,64.53
2018-08-31T08:12:00.472Z,100.00
2018-08-31T08:13:07.852Z,63.70
2018-08-31T08:14:12.611Z,63.88
2018-08-31T08:15:20.393Z,62.98
2018-08-31T08:16:25.086Z,62.78
2018-08-31T08:17:30.380Z,62.73
2018-08-31T08:18:35.248Z,63.10
2018-08-31T08:19:40.697Z,62.28
2018-08-31T08:20:45.816Z,62.50
2018-08-31T08:21:50.679Z,61.53
2018-08-31T08:22:55.611Z,61.00
2018-08-31T08:24:00.360Z,61.01
2018-08-31T08:25:06.637Z,60.26
2018-08-31T08:26:11.422Z,60.14
2018-08-31T08:27:17.073Z,60.39
2018-08-31T08:28:22.507Z,60.14
2018-08-31T08:29:29.906Z,59.18
2018-08-31T08:30:35.125Z,57.55
2018-08-31T08:31:40.785Z,57.76
2018-08-31T08:32:45.607Z,56.59
2018-08-31T08:33:51.788Z,56.25
2018-08-31T08:34:56.571Z,56.14
2018-08-31T08:36:01.494Z,56.10
2018-08-31T08:37:06.801Z,57.00
2018-08-31T08:38:14.593Z,56.61
2018-08-31T08:39:19.891Z,56.96
2018-08-31T08:40:25.329Z,56.02
2018-08-31T08:41:30.147Z,54.86
2018-08-31T08:42:36.374Z,54.41
2018-08-31T08:43:46.045Z,53.79
2018-08-31T08:44:52.427Z,52.36
2018-08-31T08:45:57.228Z,52.06
2018-08-31T08:47:02.374Z,52.64
2018-08-31T08:48:07.287Z,51.51
2018-08-31T08:49:12.090Z,50.82
2018-08-31T08:50:17.669Z,51.35
2018-08-31T08:51:22.414Z,50.72
2018-08-31T08:52:28.285Z,50.42
2018-08-31T08:53:33.041Z,49.80
2018-08-31T08:54:37.838Z,49.65
2018-08-31T08:55:42.518Z,49.27
2018-08-31T08:56:47.796Z,50.12
2018-08-31T08:57:52.466Z,49.63
2018-08-31T08:58:58.004Z,49.07
2018-08-31T09:00:02.676Z,48.60
2018-08-31T09:01:07.308Z,48.80
2018-08-31T09:02:12.525Z,48.92
2018-08-31T09:03:19.398Z,49.19
2018-08-31T09:04:24.158Z,48.56
2018-08-31T09:05:29.131Z,49.13
2018-08-31T09:06:36.586Z,48.47
2018-08-31T09:07:41.305Z,47.88
2018-08-31T09:08:45.894Z,47.23
2018-08-31T09:09:51.138Z,46.80
2018-08-31T09:10:59.313Z,46.00
2018-08-31T09:12:04.027Z,44.95
2018-08-31T09:13:08.765Z,45.04
2018-08-31T09:14:13.456Z,44.58
2018-08-31T09:15:18.225Z,44.84
2018-08-31T09:16:25.239Z,45.70
2018-08-31T09:17:30.188Z,45.56
2018-08-31T09:18:34.947Z,45.40
2018-08-31T09:19:41.827Z,43.65
2018-08-31T09:20:48.446Z,43.52
2018-08-31T09:21:53.260Z,43.59
2018-08-31T09:22:59.856Z,43.73
2018-08-31T09:24:05.395Z,43.63
2018-08-31T09:25:11.616Z,44.05
2018-08-31T09:26:16.244Z,43.99
2018-08-31T09:27:23.276Z,43.35
2018-08-31T09:28:28.547Z,42.82
2018-08-31T09:29:35.221Z,42.79
2018-08-31T09:30:45.899Z,42.22
2018-08-31T09:31:51.418Z,41.32
2018-08-31T09:32:57.386Z,41.52
2018-08-31T09:34:02.140Z,41.35
2018-08-31T09:35:08.065Z,41.33
2018-08-31T09:36:14.343Z,41.52
2018-08-31T09:37:21.487Z,41.42
2018-08-31T09:38:27.041Z,41.68
2018-08-31T09:39:33.613Z,42.77
2018-08-31T09:40:40.273Z,41.92
2018-08-31T09:41:44.895Z,42.44
2018-08-31T09:42:49.741Z,42.37
2018-08-31T09:43:54.672Z,42.52
2018-08-31T09:45:00.372Z,42.74
2018-08-31T09:46:05.469Z,42.33
2018-08-31T09:47:11.108Z,42.15
2018-08-31T09:48:17.667Z,41.99
2018-08-31T09:49:22.333Z,42.17
2018-08-31T09:50:28.063Z,42.31
2018-08-31T09:51:34.633Z,42.95
2018-08-31T09:52:41.713Z,43.30
2018-08-31T09:53:49.348Z,43.30
2018-08-31T09:54:54.588Z,43.35
2018-08-31T09:55:59.235Z,43.32
2018-08-31T09:58:25.927Z,41.87
2018-08-31T09:59:31.858Z,41.41
2018-08-31T10:00:43.047Z,42.06
2018-08-31T10:01:50.533Z,41.05
2018-08-31T10:03:02.615Z,41.23
2018-08-31T10:04:08.866Z,40.98
2018-08-31T10:05:15.422Z,42.10
2018-08-31T10:06:22.676Z,42.13
2018-08-31T10:07:28.884Z,41.62
2018-08-31T10:08:34.894Z,41.33
2018-08-31T10:09:40.062Z,41.77
2018-08-31T10:10:44.760Z,41.04
2018-08-31T10:11:50.266Z,41.36
2018-08-31T10:12:55.011Z,41.61
2018-08-31T10:14:00.148Z,42.28
2018-08-31T10:15:04.847Z,42.17
2018-08-31T10:16:10.497Z,42.25
2018-08-31T10:17:15.100Z,41.58
2018-08-31T10:18:24.455Z,43.91
2018-08-31T10:19:30.291Z,40.54
2018-08-31T10:20:35.556Z,40.55
2018-08-31T10:21:41.204Z,55.03
2018-08-31T10:22:47.840Z,55.03
2018-08-31T10:23:55.369Z,39.54
2018-08-31T10:25:01.402Z,39.97
2018-08-31T10:26:10.321Z,100.00
2018-08-31T10:27:17.320Z,100.00
2018-08-31T10:28:22.694Z,39.70
2018-08-31T10:29:27.717Z,38.99
2018-08-31T10:32:23.149Z,39.01
2018-08-31T10:33:28.668Z,38.80
2018-08-31T10:34:34.830Z,39.55
2018-08-31T10:35:40.472Z,39.69
2018-08-31T10:36:46.526Z,38.74
2018-08-31T10:37:55.057Z,38.99
2018-08-31T10:39:00.845Z,100.00
2018-08-31T10:40:06.644Z,38.56
2018-08-31T10:41:12.679Z,100.00
2018-08-31T10:42:19.111Z,37.79
2018-08-31T10:43:25.198Z,37.41
2018-08-31T10:44:32.517Z,37.51
2018-08-31T10:45:39.525Z,16.60
2018-08-31T10:46:45.296Z,100.00
2018-08-31T10:47:49.990Z,38.82
2018-08-31T10:48:54.744Z,38.56
2018-08-31T10:50:00.121Z,39.29
2018-08-31T10:51:06.385Z,39.95
2018-08-31T10:52:11.776Z,40.02
2018-08-31T10:53:16.553Z,39.59
2018-08-31T10:54:23.329Z,39.83
2018-08-31T10:55:30.081Z,39.40
2018-08-31T10:56:35.185Z,39.58
2018-08-31T10:57:39.851Z,39.54
2018-08-31T10:58:45.464Z,39.88
2018-08-31T10:59:50.538Z,39.17
2018-08-31T11:00:56.114Z,39.55
2018-08-31T11:02:01.645Z,39.20
2018-08-31T11:03:06.891Z,38.72
2018-08-31T11:04:11.687Z,38.88
2018-08-31T11:05:16.536Z,39.00
2018-08-31T11:06:21.283Z,38.40
2018-08-31T11:07:26.107Z,38.03
2018-08-31T11:08:30.745Z,38.57
2018-08-31T11:09:36.444Z,38.75
2018-08-31T11:10:44.144Z,38.65
2018-08-31T11:11:48.914Z,38.34
2018-08-31T11:12:55.828Z,38.29
2018-08-31T11:14:02.100Z,37.00
2018-08-31T11:15:07.705Z,37.32
2018-08-31T11:16:15.103Z,36.57
2018-08-31T11:17:22.059Z,36.93
2018-08-31T11:18:26.785Z,36.99
2018-08-31T11:19:32.666Z,38.29
2018-08-31T11:20:37.401Z,37.81
2018-08-31T11:21:44.019Z,36.65
2018-08-31T11:22:50.016Z,37.64
2018-08-31T11:23:55.491Z,36.97
2018-08-31T11:25:00.914Z,37.15
2018-08-31T11:26:09.281Z,36.92
2018-08-31T11:27:14.032Z,36.94
2018-08-31T11:28:19.628Z,37.10
2018-08-31T11:29:25.807Z,36.98
2018-08-31T11:30:30.947Z,36.61
2018-08-31T11:31:35.747Z,36.02
2018-08-31T11:32:41.333Z,36.80
2018-08-31T11:33:46.945Z,36.32
2018-08-31T11:34:52.515Z,37.08
2018-08-31T11:35:58.803Z,36.18
2018-08-31T11:37:03.641Z,36.97
2018-08-31T11:38:09.899Z,34.85
2018-08-31T11:39:15.339Z,34.80
2018-08-31T11:40:24.380Z,35.33
2018-08-31T11:41:30.251Z,34.80
2018-08-31T11:42:37.912Z,34.85
2018-08-31T11:43:43.179Z,35.37
2018-08-31T11:44:49.082Z,34.67
2018-08-31T11:45:54.689Z,35.72
2018-08-31T11:47:01.338Z,35.20
2018-08-31T11:48:08.678Z,34.57
2018-08-31T11:49:13.419Z,35.17
2018-08-31T11:50:19.080Z,35.52
2018-08-31T11:51:23.784Z,34.80
2018-08-31T11:52:30.788Z,35.40
2018-08-31T11:53:37.227Z,35.07
2018-08-31T11:54:41.872Z,35.83
2018-08-31T11:55:47.029Z,35.86
2018-08-31T11:56:53.017Z,35.35
2018-08-31T11:57:57.666Z,35.83
2018-08-31T11:59:03.285Z,36.52
2018-08-31T12:00:09.689Z,36.28
2018-08-31T12:01:15.766Z,36.40
2018-08-31T12:02:20.641Z,36.33
2018-08-31T12:03:25.771Z,37.08
2018-08-31T12:04:34.132Z,36.38
2018-08-31T12:05:42.386Z,36.82
2018-08-31T12:06:47.046Z,37.01
2018-08-31T12:07:52.964Z,37.49
2018-08-31T12:08:57.743Z,37.77
2018-08-31T12:10:03.644Z,37.21
2018-08-31T12:11:09.264Z,37.72
2018-08-31T12:12:14.818Z,37.49
2018-08-31T12:13:22.130Z,37.52
2018-08-31T12:14:31.198Z,37.85
2018-08-31T12:15:36.824Z,37.82
2018-08-31T12:16:42.400Z,37.69
2018-08-31T12:17:50.696Z,37.40
2018-08-31T12:18:57.748Z,37.61
2018-08-31T12:20:02.474Z,37.90
2018-08-31T12:21:09.394Z,38.10
2018-08-31T12:22:15.008Z,37.52
2018-08-31T12:23:20.608Z,37.55
2018-08-31T12:24:26.446Z,37.65
2018-08-31T12:25:32.020Z,37.91
2018-08-31T12:26:37.041Z,38.08
2018-08-31T12:27:46.838Z,38.25
2018-08-31T12:28:52.412Z,37.81
2018-08-31T12:29:59.064Z,38.23
2018-08-31T12:31:06.594Z,38.64
2018-08-31T12:32:11.381Z,38.57
2018-08-31T12:33:17.368Z,38.87
2018-08-31T12:34:22.478Z,39.15
2018-08-31T12:35:30.130Z,39.12
2018-08-31T12:36:37.943Z,38.86
2018-08-31T12:37:44.274Z,39.22
2018-08-31T12:38:49.713Z,39.38
2018-08-31T12:39:54.473Z,38.65
2018-08-31T12:41:00.280Z,38.61
2018-08-31T12:42:05.096Z,37.41
2018-08-31T12:43:11.014Z,37.86
2018-08-31T12:44:17.788Z,36.74
2018-08-31T12:45:25.519Z,35.87
2018-08-31T12:46:30.295Z,35.71
2018-08-31T12:47:36.344Z,35.17
2018-08-31T12:48:42.999Z,34.84
2018-08-31T12:49:50.576Z,34.42
2018-08-31T12:50:56.020Z,34.99
2018-08-31T12:52:02.276Z,35.71
2018-08-31T12:53:08.697Z,35.38
2018-08-31T12:54:15.414Z,35.38
2018-08-31T12:55:21.290Z,35.73
2018-08-31T12:56:26.354Z,35.43
2018-08-31T12:57:37.493Z,35.56
2018-08-31T12:58:43.209Z,36.15
2018-08-31T12:59:52.980Z,36.50
2018-08-31T13:00:58.528Z,37.19
2018-08-31T13:02:03.415Z,37.74
2018-08-31T13:03:09.616Z,38.27
2018-08-31T13:04:14.335Z,37.94
2018-08-31T13:05:19.255Z,38.08
2018-08-31T13:06:24.505Z,38.61
2018-08-31T13:07:29.248Z,37.68
2018-08-31T13:08:35.297Z,38.23
2018-08-31T13:09:40.699Z,38.37
2018-08-31T13:10:46.019Z,38.03
2018-08-31T13:11:50.758Z,38.17
2018-08-31T13:12:55.528Z,38.07
2018-08-31T13:14:00.366Z,37.58
2018-08-31T13:15:05.683Z,37.99
2018-08-31T13:16:13.027Z,38.37
2018-08-31T13:17:17.751Z,38.04
2018-08-31T13:18:23.111Z,38.13
2018-08-31T13:19:29.431Z,38.08
2018-08-31T13:20:34.282Z,37.44
2018-08-31T13:21:45.865Z,38.14
2018-08-31T13:22:53.492Z,37.23
2018-08-31T13:23:58.108Z,37.77
2018-08-31T13:25:03.357Z,37.76
2018-08-31T13:26:08.046Z,37.01
2018-08-31T13:27:12.756Z,36.93
2018-08-31T13:28:19.614Z,37.62
2018-08-31T13:29:24.298Z,36.91
2018-08-31T13:30:28.910Z,37.11
2018-08-31T13:31:33.606Z,36.89
2018-08-31T13:32:39.267Z,36.51
2018-08-31T13:33:44.888Z,37.11
2018-08-31T13:34:53.180Z,36.29
2018-08-31T13:35:59.871Z,37.16
2018-08-31T13:38:22.982Z,37.43
2018-08-31T13:39:28.543Z,36.54
2018-08-31T13:40:33.708Z,36.74
2018-08-31T13:41:38.521Z,36.81
2018-08-31T13:42:43.251Z,37.21
2018-08-31T13:43:49.345Z,37.43
2018-08-31T13:44:55.700Z,37.30
2018-08-31T13:46:02.104Z,37.15
2018-08-31T13:47:08.857Z,36.76
2018-08-31T13:48:15.177Z,37.22
2018-08-31T13:49:20.948Z,36.19
2018-08-31T13:50:26.825Z,36.29
2018-08-31T13:51:31.642Z,35.81
2018-08-31T13:52:36.776Z,35.82
2018-08-31T13:53:43.167Z,36.28
2018-08-31T13:54:47.946Z,35.42
2018-08-31T13:55:53.950Z,35.84
2018-08-31T13:57:00.310Z,35.88
2018-08-31T13:58:07.091Z,36.19
2018-08-31T13:59:13.626Z,35.66
2018-08-31T14:00:20.003Z,35.87
2018-08-31T14:01:25.674Z,35.62
2018-08-31T14:02:30.561Z,36.52
2018-08-31T14:03:36.320Z,37.00
2018-08-31T14:04:41.063Z,37.36
2018-08-31T14:05:45.776Z,37.14
2018-08-31T14:06:50.865Z,37.08
2018-08-31T14:07:55.919Z,36.73
2018-08-31T14:09:00.791Z,37.34
2018-08-31T14:10:07.901Z,37.01
2018-08-31T14:11:15.446Z,36.87
2018-08-31T14:12:20.565Z,37.37
2018-08-31T14:13:25.759Z,37.62
2018-08-31T14:14:30.500Z,37.20
2018-08-31T14:15:35.426Z,38.01
2018-08-31T14:16:40.218Z,37.23
2018-08-31T14:17:45.014Z,37.11
2018-08-31T14:18:50.227Z,36.80